Terminal Aerodrome Forecast
Issued by NWS Albany, NY

Home | Current Version | Previous Version | Text Only | Print | Product List | Glossary On
Versions: 1 2 3 4 5 6 7 8 9 10 11 12 13 14 15 16 17 18 19 20 21 22 23 24 25 26 27 28 29 30 31 32 33 34
000
FTUS41 KALY 280549
TAFALB
TAF
KALB 280549Z 2806/2906 33006KT 6SM -SHSN OVC035
      TEMPO 2806/2810 2SM -SHSN OVC025
     FM281000 32010G15KT P6SM VCSH OVC030
      TEMPO 2814/2818 2SM -SHSN OVC015
     FM282300 32010KT P6SM OVC040
     FM290500 32006KT P6SM SCT045=

USA.gov is the U.S. government's official web portal to all federal, state and local government web resources and services.